createdAt,value
2023-06-18T00:02:40.460Z,54.83
2023-06-18T00:07:43.397Z,55.57
2023-06-18T00:12:44.968Z,55.37
2023-06-18T00:17:46.594Z,55.89
2023-06-18T00:22:50.602Z,54.58
2023-06-18T00:27:52.292Z,54.98
2023-06-18T00:32:53.974Z,55.35
2023-06-18T00:37:56.963Z,55.71
2023-06-18T00:42:59.268Z,56.53
2023-06-18T00:48:01.321Z,56.79
2023-06-18T00:53:04.348Z,55.95
2023-06-18T00:58:05.980Z,56.80
2023-06-18T01:03:12.366Z,57.56
2023-06-18T01:08:16.441Z,56.20
2023-06-18T01:13:18.083Z,57.06
2023-06-18T01:18:19.935Z,56.98
2023-06-18T01:23:28.246Z,57.15
2023-06-18T01:28:30.007Z,56.81
2023-06-18T01:33:32.233Z,57.89
2023-06-18T01:38:43.706Z,57.68
2023-06-18T01:43:49.103Z,57.11
2023-06-18T01:48:54.899Z,57.37
2023-06-18T01:54:00.395Z,58.84
2023-06-18T01:59:03.032Z,57.34
2023-06-18T02:04:04.955Z,58.11
2023-06-18T02:09:07.930Z,57.71
2023-06-18T02:14:09.517Z,58.84
2023-06-18T02:19:11.174Z,59.12
2023-06-18T02:24:15.490Z,59.79
2023-06-18T02:29:17.127Z,60.53
2023-06-18T02:34:18.807Z,60.03
2023-06-18T02:39:22.757Z,59.96
2023-06-18T02:44:24.295Z,64.08
2023-06-18T02:49:25.893Z,61.80
2023-06-18T02:54:28.886Z,63.06
2023-06-18T02:59:30.495Z,61.69
2023-06-18T03:04:32.112Z,63.08
2023-06-18T03:09:35.162Z,61.60
2023-06-18T03:14:36.802Z,64.13
2023-06-18T03:19:43.677Z,65.02
2023-06-18T03:24:46.664Z,64.86
2023-06-18T03:29:48.316Z,65.68
2023-06-18T03:34:50.006Z,63.61
2023-06-18T03:39:52.974Z,63.45
2023-06-18T03:44:55.152Z,64.43
2023-06-18T03:49:56.888Z,63.93
2023-06-18T03:54:59.902Z,64.71
2023-06-18T04:00:01.935Z,64.48
2023-06-18T04:05:03.730Z,64.67
2023-06-18T04:10:07.641Z,63.67
2023-06-18T04:15:10.148Z,64.81
2023-06-18T04:20:13.349Z,66.24
2023-06-18T04:25:16.672Z,64.32
2023-06-18T04:30:18.917Z,65.93
2023-06-18T04:35:20.479Z,67.19
2023-06-18T04:40:23.825Z,71.12
2023-06-18T04:45:25.642Z,67.29
2023-06-18T04:50:27.247Z,71.40
2023-06-18T04:55:30.259Z,79.34
2023-06-18T05:00:32.062Z,81.08
2023-06-18T05:05:33.715Z,85.96
2023-06-18T05:10:36.937Z,77.32
2023-06-18T05:15:38.839Z,85.43
2023-06-18T05:20:40.461Z,79.08
2023-06-18T05:25:43.538Z,76.17
2023-06-18T05:30:45.152Z,80.43
2023-06-18T05:35:46.798Z,85.66
2023-06-18T05:40:49.789Z,88.06
2023-06-18T05:45:51.494Z,87.50
2023-06-18T05:50:53.146Z,75.85
2023-06-18T05:55:56.064Z,81.79
2023-06-18T06:00:57.714Z,84.79
2023-06-18T06:05:59.350Z,77.62
2023-06-18T06:11:02.321Z,71.37
2023-06-18T06:16:04.202Z,72.59
2023-06-18T06:21:05.784Z,74.24
2023-06-18T06:26:08.970Z,65.56
2023-06-18T06:31:10.611Z,68.95
2023-06-18T06:36:12.249Z,62.80
2023-06-18T06:41:15.229Z,63.56
2023-06-18T06:46:16.813Z,72.09
2023-06-18T06:51:18.469Z,64.52
2023-06-18T07:01:23.406Z,62.68
2023-06-18T07:06:25.325Z,67.86
2023-06-18T07:11:28.329Z,65.12
2023-06-18T07:16:30.146Z,61.15
2023-06-18T07:21:31.768Z,69.87
2023-06-18T07:26:34.779Z,55.69
2023-06-18T07:31:36.453Z,66.19
2023-06-18T07:36:38.256Z,61.81
2023-06-18T07:41:41.230Z,57.54
2023-06-18T07:46:43.111Z,63.38
2023-06-18T07:51:44.889Z,60.19
2023-06-18T07:56:47.927Z,55.58
2023-06-18T08:01:50.209Z,50.91
2023-06-18T08:06:51.948Z,46.77
2023-06-18T08:11:55.002Z,43.75
2023-06-18T08:16:56.630Z,45.43
2023-06-18T08:21:58.282Z,41.78
2023-06-18T08:27:01.503Z,41.20
2023-06-18T08:32:03.126Z,42.52
2023-06-18T08:37:05.537Z,42.01
2023-06-18T08:42:08.918Z,41.88
2023-06-18T08:47:10.673Z,40.26
2023-06-18T08:52:15.032Z,38.29
2023-06-18T08:57:31.992Z,39.33
2023-06-18T09:02:33.544Z,38.82
2023-06-18T09:07:36.593Z,36.57
2023-06-18T09:12:40.431Z,36.46
2023-06-18T09:17:49.654Z,38.37
2023-06-18T09:22:51.455Z,36.44
2023-06-18T09:27:56.710Z,34.85
2023-06-18T09:32:58.719Z,36.88
2023-06-18T09:38:08.799Z,35.98
2023-06-18T09:43:12.577Z,38.08
2023-06-18T09:48:14.374Z,37.81
2023-06-18T09:53:17.915Z,36.37
2023-06-18T09:58:39.510Z,36.35
2023-06-18T10:03:42.311Z,35.59
2023-06-18T10:08:47.151Z,35.23
2023-06-18T10:13:51.578Z,35.91
2023-06-18T10:19:01.463Z,34.65
2023-06-18T10:24:10.450Z,35.32
2023-06-18T10:29:13.854Z,36.75
2023-06-18T10:34:16.028Z,40.52
2023-06-18T10:39:24.909Z,36.80
2023-06-18T10:44:48.686Z,40.91
2023-06-18T10:50:13.146Z,39.13
2023-06-18T10:55:30.447Z,45.42
2023-06-18T11:00:35.883Z,37.20
2023-06-18T11:05:45.096Z,35.98
2023-06-18T11:10:48.194Z,36.41
2023-06-18T11:15:58.836Z,37.17
2023-06-18T11:21:01.898Z,38.88
2023-06-18T11:26:03.605Z,39.17
2023-06-18T11:31:06.631Z,43.86
2023-06-18T11:36:10.221Z,41.21
2023-06-18T11:41:11.866Z,36.14
2023-06-18T11:46:31.701Z,36.01
2023-06-18T11:51:33.575Z,35.07
2023-06-18T11:56:35.303Z,39.61
2023-06-18T12:01:38.252Z,36.43
2023-06-18T12:06:39.919Z,36.46
2023-06-18T12:11:58.506Z,35.40
2023-06-18T12:17:07.719Z,33.33
2023-06-18T12:22:09.473Z,33.79
2023-06-18T12:27:11.193Z,34.93
2023-06-18T12:32:15.249Z,33.98
2023-06-18T12:37:16.847Z,34.04
2023-06-18T12:42:21.445Z,34.12
2023-06-18T12:47:24.486Z,34.15
2023-06-18T12:52:27.292Z,35.18
2023-06-18T12:57:29.125Z,34.11
2023-06-18T13:02:32.131Z,34.92
2023-06-18T13:07:33.885Z,34.56
2023-06-18T13:12:35.679Z,34.91
2023-06-18T13:17:38.877Z,34.60
2023-06-18T13:22:40.857Z,34.57
2023-06-18T13:27:42.510Z,34.18
2023-06-18T13:32:45.610Z,32.95
2023-06-18T13:37:47.267Z,31.91
2023-06-18T13:42:48.853Z,36.15
2023-06-18T13:47:51.826Z,34.32
2023-06-18T13:52:53.564Z,40.11
2023-06-18T13:57:55.229Z,34.16
2023-06-18T14:02:58.357Z,34.73
2023-06-18T14:08:00.042Z,34.96
2023-06-18T14:13:01.629Z,35.80
2023-06-18T14:18:04.889Z,35.11
2023-06-18T14:23:06.510Z,33.48
2023-06-18T14:28:08.122Z,34.48
2023-06-18T14:33:11.133Z,35.39
2023-06-18T14:38:12.771Z,35.90
2023-06-18T14:43:14.412Z,34.93
2023-06-18T14:48:17.316Z,35.29
2023-06-18T14:53:18.923Z,35.56
2023-06-18T14:58:20.589Z,35.48
2023-06-18T15:03:23.765Z,35.91
2023-06-18T15:08:25.488Z,35.30
2023-06-18T15:13:27.141Z,34.64
2023-06-18T15:18:30.215Z,34.69
2023-06-18T15:23:31.798Z,35.89
2023-06-18T15:28:33.386Z,34.78
2023-06-18T15:33:36.386Z,33.43
2023-06-18T15:38:38.056Z,34.45
2023-06-18T15:43:39.640Z,34.91
2023-06-18T15:48:42.674Z,34.84
2023-06-18T15:53:44.309Z,32.97
2023-06-18T15:58:46.004Z,39.02
2023-06-18T16:03:50.081Z,34.47
2023-06-18T16:08:51.680Z,36.69
2023-06-18T16:13:53.585Z,32.78
2023-06-18T16:18:56.978Z,36.92
2023-06-18T16:23:58.543Z,35.13
2023-06-18T16:29:00.209Z,34.78
2023-06-18T16:34:03.142Z,35.14
2023-06-18T16:39:04.786Z,38.48
2023-06-18T16:44:06.351Z,35.11
2023-06-18T16:49:09.366Z,36.56
2023-06-18T16:54:11.048Z,35.73
2023-06-18T16:59:12.611Z,35.62
2023-06-18T17:04:15.624Z,41.10
2023-06-18T17:09:17.229Z,41.31
2023-06-18T17:14:18.812Z,41.61
2023-06-18T17:19:21.806Z,42.48
2023-06-18T17:24:23.371Z,41.27
2023-06-18T17:29:25.062Z,41.65
2023-06-18T17:34:28.001Z,42.56
2023-06-18T17:39:29.918Z,42.40
2023-06-18T17:44:31.599Z,41.78
2023-06-18T17:49:34.548Z,41.63
2023-06-18T17:54:36.209Z,42.34
2023-06-18T17:59:37.774Z,43.52
2023-06-18T18:04:40.702Z,45.28
2023-06-18T18:09:42.338Z,45.85
2023-06-18T18:14:43.997Z,46.62
2023-06-18T18:19:46.953Z,45.49
2023-06-18T18:24:48.608Z,47.16
2023-06-18T18:29:50.196Z,46.49
2023-06-18T18:34:53.112Z,46.41
2023-06-18T18:39:54.891Z,46.89
2023-06-18T18:44:56.445Z,46.82
2023-06-18T18:49:59.347Z,49.76
2023-06-18T18:55:00.923Z,47.83
2023-06-18T19:00:02.610Z,48.00
2023-06-18T19:05:06.725Z,47.99
2023-06-18T19:10:09.102Z,48.86
2023-06-18T19:15:11.653Z,48.38
2023-06-18T19:20:14.705Z,48.51
2023-06-18T19:25:16.373Z,48.77
2023-06-18T19:30:18.072Z,48.76
2023-06-18T19:35:21.117Z,48.85
2023-06-18T19:40:22.989Z,48.58
2023-06-18T19:45:24.825Z,49.40
2023-06-18T19:50:27.849Z,49.86
2023-06-18T19:55:29.405Z,49.36
2023-06-18T20:00:31.102Z,49.45
2023-06-18T20:05:34.129Z,50.93
2023-06-18T20:10:35.731Z,49.60
2023-06-18T20:15:37.335Z,50.60
2023-06-18T20:20:40.603Z,50.68
2023-06-18T20:25:42.171Z,51.65
2023-06-18T20:30:43.765Z,50.87
2023-06-18T20:35:46.701Z,51.57
2023-06-18T20:40:48.262Z,51.17
2023-06-18T20:45:49.964Z,52.33
2023-06-18T20:50:53.072Z,50.91
2023-06-18T20:55:55.614Z,51.56
2023-06-18T21:00:58.849Z,57.17
2023-06-18T21:06:01.826Z,63.92
2023-06-18T21:11:03.399Z,63.16
2023-06-18T21:16:05.220Z,65.04
2023-06-18T21:21:08.221Z,65.74
2023-06-18T21:26:10.023Z,73.06
2023-06-18T21:31:12.246Z,71.06
2023-06-18T21:36:15.434Z,70.54
2023-06-18T21:41:16.997Z,71.69
2023-06-18T21:46:18.614Z,78.57
2023-06-18T21:51:21.714Z,70.64
2023-06-18T21:56:23.320Z,60.37
2023-06-18T22:01:25.064Z,58.83
2023-06-18T22:06:28.067Z,60.83
2023-06-18T22:11:29.681Z,66.16
2023-06-18T22:16:31.357Z,69.70
2023-06-18T22:21:34.460Z,73.39
2023-06-18T22:26:36.644Z,61.66
2023-06-18T22:31:38.370Z,60.95
2023-06-18T22:36:41.412Z,60.23
2023-06-18T22:41:43.029Z,61.46
2023-06-18T22:46:44.635Z,60.78
2023-06-18T22:51:54.448Z,61.32
2023-06-18T22:56:56.118Z,61.65
2023-06-18T23:01:57.698Z,63.21
2023-06-18T23:07:00.648Z,63.42
2023-06-18T23:12:02.261Z,63.06
2023-06-18T23:17:04.385Z,64.30
2023-06-18T23:22:08.212Z,65.10
2023-06-18T23:27:09.940Z,63.55
2023-06-18T23:32:11.560Z,63.76
2023-06-18T23:37:14.573Z,68.42
2023-06-18T23:42:16.166Z,65.47
2023-06-18T23:47:17.824Z,62.89
2023-06-18T23:52:20.737Z,61.59
2023-06-18T23:57:22.331Z,62.39
